sensor_id;sensor_type;location;lat;lon;timestamp;temperature;humidity
18998;DHT22;9632;51.018;4.284;2022-12-29T00:02:23;12.70;99.90
18998;DHT22;9632;51.018;4.284;2022-12-29T00:04:50;12.70;99.90
18998;DHT22;9632;51.018;4.284;2022-12-29T00:07:16;12.60;99.90
18998;DHT22;9632;51.018;4.284;2022-12-29T00:09:42;12.60;99.90
18998;DHT22;9632;51.018;4.284;2022-12-29T00:12:08;12.60;99.90
18998;DHT22;9632;51.018;4.284;2022-12-29T00:14:35;12.60;99.90
18998;DHT22;9632;51.018;4.284;2022-12-29T00:17:19;12.60;99.90
18998;DHT22;9632;51.018;4.284;2022-12-29T00:19:45;12.50;99.90
18998;DHT22;9632;51.018;4.284;2022-12-29T00:22:29;12.50;99.90
18998;DHT22;9632;51.018;4.284;2022-12-29T00:25:13;12.40;99.90
18998;DHT22;9632;51.018;4.284;2022-12-29T00:27:58;12.50;99.90
18998;DHT22;9632;51.018;4.284;2022-12-29T00:30:42;12.50;99.90
18998;DHT22;9632;51.018;4.284;2022-12-29T00:33:30;12.50;99.90
18998;DHT22;9632;51.018;4.284;2022-12-29T00:36:30;12.50;99.90
18998;DHT22;9632;51.018;4.284;2022-12-29T00:39:07;12.40;99.90
18998;DHT22;9632;51.018;4.284;2022-12-29T00:41:53;12.50;99.90
18998;DHT22;9632;51.018;4.284;2022-12-29T00:44:37;12.50;99.90
18998;DHT22;9632;51.018;4.284;2022-12-29T00:47:03;12.60;99.90
18998;DHT22;9632;51.018;4.284;2022-12-29T00:49:30;12.50;99.90
18998;DHT22;9632;51.018;4.284;2022-12-29T00:54:22;12.50;99.90
18998;DHT22;9632;51.018;4.284;2022-12-29T00:56:49;12.50;99.90
18998;DHT22;9632;51.018;4.284;2022-12-29T00:59:15;12.50;99.90
18998;DHT22;9632;51.018;4.284;2022-12-29T01:01:41;12.50;99.90
18998;DHT22;9632;51.018;4.284;2022-12-29T01:04:07;12.50;99.90
18998;DHT22;9632;51.018;4.284;2022-12-29T01:06:35;12.50;99.90
18998;DHT22;9632;51.018;4.284;2022-12-29T01:09:02;12.50;99.90
18998;DHT22;9632;51.018;4.284;2022-12-29T01:11:47;12.50;99.90
18998;DHT22;9632;51.018;4.284;2022-12-29T01:14:14;12.50;99.90
18998;DHT22;9632;51.018;4.284;2022-12-29T01:16:47;12.60;99.90
18998;DHT22;9632;51.018;4.284;2022-12-29T01:19:14;12.60;99.90
18998;DHT22;9632;51.018;4.284;2022-12-29T01:21:40;12.60;99.90
18998;DHT22;9632;51.018;4.284;2022-12-29T01:24:06;12.70;99.90
18998;DHT22;9632;51.018;4.284;2022-12-29T01:26:32;12.70;99.90
18998;DHT22;9632;51.018;4.284;2022-12-29T01:28:57;12.70;99.90
18998;DHT22;9632;51.018;4.284;2022-12-29T01:31:23;12.70;99.90
18998;DHT22;9632;51.018;4.284;2022-12-29T01:33:49;12.70;99.90
18998;DHT22;9632;51.018;4.284;2022-12-29T01:36:16;12.60;99.90
18998;DHT22;9632;51.018;4.284;2022-12-29T01:38:42;12.60;99.90
18998;DHT22;9632;51.018;4.284;2022-12-29T01:41:10;12.60;99.90
18998;DHT22;9632;51.018;4.284;2022-12-29T01:43:56;12.60;99.90
18998;DHT22;9632;51.018;4.284;2022-12-29T01:51:48;12.70;99.90
18998;DHT22;9632;51.018;4.284;2022-12-29T01:54:31;12.80;99.90
18998;DHT22;9632;51.018;4.284;2022-12-29T01:57:02;12.70;99.90
18998;DHT22;9632;51.018;4.284;2022-12-29T01:59:33;12.60;99.90
18998;DHT22;9632;51.018;4.284;2022-12-29T02:02:00;12.60;99.90
18998;DHT22;9632;51.018;4.284;2022-12-29T02:04:26;12.60;99.90
18998;DHT22;9632;51.018;4.284;2022-12-29T02:06:59;12.60;99.90
18998;DHT22;9632;51.018;4.284;2022-12-29T02:09:26;12.60;99.90
18998;DHT22;9632;51.018;4.284;2022-12-29T02:11:52;12.60;99.90
18998;DHT22;9632;51.018;4.284;2022-12-29T02:14:17;12.60;99.90
18998;DHT22;9632;51.018;4.284;2022-12-29T02:31:28;12.30;99.90
18998;DHT22;9632;51.018;4.284;2022-12-29T02:39:41;12.40;99.90
18998;DHT22;9632;51.018;4.284;2022-12-29T02:47:30;12.10;99.90
18998;DHT22;9632;51.018;4.284;2022-12-29T02:52:50;12.10;99.90
18998;DHT22;9632;51.018;4.284;2022-12-29T02:55:16;12.10;99.90
18998;DHT22;9632;51.018;4.284;2022-12-29T02:57:42;12.20;99.90
18998;DHT22;9632;51.018;4.284;2022-12-29T03:00:13;12.20;99.90
18998;DHT22;9632;51.018;4.284;2022-12-29T03:03:47;12.20;99.90
18998;DHT22;9632;51.018;4.284;2022-12-29T03:11:12;12.00;99.90
18998;DHT22;9632;51.018;4.284;2022-12-29T03:16:48;11.90;99.90
18998;DHT22;9632;51.018;4.284;2022-12-29T03:19:30;11.90;99.90
18998;DHT22;9632;51.018;4.284;2022-12-29T03:22:05;11.90;99.90
18998;DHT22;9632;51.018;4.284;2022-12-29T03:24:56;11.80;99.90
18998;DHT22;9632;51.018;4.284;2022-12-29T03:27:30;11.90;99.90
18998;DHT22;9632;51.018;4.284;2022-12-29T03:30:00;11.80;99.90
18998;DHT22;9632;51.018;4.284;2022-12-29T03:32:51;11.80;99.90
18998;DHT22;9632;51.018;4.284;2022-12-29T03:35:18;11.70;99.90
18998;DHT22;9632;51.018;4.284;2022-12-29T03:38:10;11.80;99.90
18998;DHT22;9632;51.018;4.284;2022-12-29T03:40:39;11.90;99.90
18998;DHT22;9632;51.018;4.284;2022-12-29T03:43:07;11.80;99.90
18998;DHT22;9632;51.018;4.284;2022-12-29T03:45:33;11.80;99.90
18998;DHT22;9632;51.018;4.284;2022-12-29T03:47:59;11.80;99.90
18998;DHT22;9632;51.018;4.284;2022-12-29T03:50:24;11.70;99.90
18998;DHT22;9632;51.018;4.284;2022-12-29T03:52:50;11.80;99.90
18998;DHT22;9632;51.018;4.284;2022-12-29T03:55:16;11.70;99.90
18998;DHT22;9632;51.018;4.284;2022-12-29T03:57:41;11.60;99.90
18998;DHT22;9632;51.018;4.284;2022-12-29T04:00:08;11.60;99.90
18998;DHT22;9632;51.018;4.284;2022-12-29T04:02:34;11.60;99.90
18998;DHT22;9632;51.018;4.284;2022-12-29T04:04:59;11.60;99.90
18998;DHT22;9632;51.018;4.284;2022-12-29T04:07:25;11.60;99.90
18998;DHT22;9632;51.018;4.284;2022-12-29T04:09:50;11.60;99.90
18998;DHT22;9632;51.018;4.284;2022-12-29T04:12:16;11.60;99.90
18998;DHT22;9632;51.018;4.284;2022-12-29T04:14:42;11.60;99.90
18998;DHT22;9632;51.018;4.284;2022-12-29T04:17:07;11.60;99.90
18998;DHT22;9632;51.018;4.284;2022-12-29T04:19:33;11.60;99.90
18998;DHT22;9632;51.018;4.284;2022-12-29T04:21:59;11.50;99.90
18998;DHT22;9632;51.018;4.284;2022-12-29T04:24:24;11.50;99.90
18998;DHT22;9632;51.018;4.284;2022-12-29T04:26:50;11.50;99.90
18998;DHT22;9632;51.018;4.284;2022-12-29T04:29:16;11.60;99.90
18998;DHT22;9632;51.018;4.284;2022-12-29T04:31:41;11.60;99.90
18998;DHT22;9632;51.018;4.284;2022-12-29T04:34:07;11.60;99.90
18998;DHT22;9632;51.018;4.284;2022-12-29T04:36:33;11.50;99.90
18998;DHT22;9632;51.018;4.284;2022-12-29T04:38:58;11.60;99.90
18998;DHT22;9632;51.018;4.284;2022-12-29T04:41:24;11.60;99.90
18998;DHT22;9632;51.018;4.284;2022-12-29T04:43:50;11.60;99.90
18998;DHT22;9632;51.018;4.284;2022-12-29T04:46:15;11.70;99.90
18998;DHT22;9632;51.018;4.284;2022-12-29T04:48:41;11.60;99.90
18998;DHT22;9632;51.018;4.284;2022-12-29T04:51:07;11.60;99.90
18998;DHT22;9632;51.018;4.284;2022-12-29T04:53:32;11.60;99.90
18998;DHT22;9632;51.018;4.284;2022-12-29T04:55:58;11.60;99.90
18998;DHT22;9632;51.018;4.284;2022-12-29T04:58:24;11.70;99.90
18998;DHT22;9632;51.018;4.284;2022-12-29T05:00:51;11.60;99.90
18998;DHT22;9632;51.018;4.284;2022-12-29T05:03:17;11.60;99.90
18998;DHT22;9632;51.018;4.284;2022-12-29T05:05:42;11.60;99.90
18998;DHT22;9632;51.018;4.284;2022-12-29T05:08:08;11.60;99.90
18998;DHT22;9632;51.018;4.284;2022-12-29T05:10:34;11.60;99.90
18998;DHT22;9632;51.018;4.284;2022-12-29T05:12:59;11.60;99.90
18998;DHT22;9632;51.018;4.284;2022-12-29T05:15:26;11.60;99.90
18998;DHT22;9632;51.018;4.284;2022-12-29T05:17:52;11.70;99.90
18998;DHT22;9632;51.018;4.284;2022-12-29T05:20:18;11.60;99.90
18998;DHT22;9632;51.018;4.284;2022-12-29T05:22:44;11.60;99.90
18998;DHT22;9632;51.018;4.284;2022-12-29T05:25:10;11.60;99.90
18998;DHT22;9632;51.018;4.284;2022-12-29T05:27:35;11.60;99.90
18998;DHT22;9632;51.018;4.284;2022-12-29T05:30:02;11.70;99.90
18998;DHT22;9632;51.018;4.284;2022-12-29T05:32:28;11.80;99.90
18998;DHT22;9632;51.018;4.284;2022-12-29T05:34:53;11.80;99.90
18998;DHT22;9632;51.018;4.284;2022-12-29T05:37:19;11.70;99.90
18998;DHT22;9632;51.018;4.284;2022-12-29T05:39:45;11.70;99.90
18998;DHT22;9632;51.018;4.284;2022-12-29T05:42:11;11.80;99.90
18998;DHT22;9632;51.018;4.284;2022-12-29T05:44:36;11.80;99.90
18998;DHT22;9632;51.018;4.284;2022-12-29T05:47:02;11.80;99.90
18998;DHT22;9632;51.018;4.284;2022-12-29T05:49:28;11.80;99.90
18998;DHT22;9632;51.018;4.284;2022-12-29T05:51:53;11.80;99.90
18998;DHT22;9632;51.018;4.284;2022-12-29T05:54:19;11.90;99.90
18998;DHT22;9632;51.018;4.284;2022-12-29T05:56:45;11.80;99.90
18998;DHT22;9632;51.018;4.284;2022-12-29T05:59:10;11.80;99.90
18998;DHT22;9632;51.018;4.284;2022-12-29T06:01:36;11.80;99.90
18998;DHT22;9632;51.018;4.284;2022-12-29T06:04:02;11.70;99.90
18998;DHT22;9632;51.018;4.284;2022-12-29T06:06:27;11.80;99.90
18998;DHT22;9632;51.018;4.284;2022-12-29T06:08:53;11.80;99.90
18998;DHT22;9632;51.018;4.284;2022-12-29T06:11:19;11.90;99.90
18998;DHT22;9632;51.018;4.284;2022-12-29T06:13:44;11.70;99.90
18998;DHT22;9632;51.018;4.284;2022-12-29T06:16:10;11.70;99.90
18998;DHT22;9632;51.018;4.284;2022-12-29T06:18:35;11.70;99.90
18998;DHT22;9632;51.018;4.284;2022-12-29T06:21:03;11.70;99.90
18998;DHT22;9632;51.018;4.284;2022-12-29T06:23:29;11.70;99.90
18998;DHT22;9632;51.018;4.284;2022-12-29T06:25:54;11.60;99.90
18998;DHT22;9632;51.018;4.284;2022-12-29T06:28:20;11.70;99.90
18998;DHT22;9632;51.018;4.284;2022-12-29T06:30:47;11.70;99.90
18998;DHT22;9632;51.018;4.284;2022-12-29T06:33:13;11.70;99.90
18998;DHT22;9632;51.018;4.284;2022-12-29T06:35:39;11.60;99.90
18998;DHT22;9632;51.018;4.284;2022-12-29T06:38:05;11.70;99.90
18998;DHT22;9632;51.018;4.284;2022-12-29T06:40:31;11.60;99.90
18998;DHT22;9632;51.018;4.284;2022-12-29T06:42:57;11.70;99.90
18998;DHT22;9632;51.018;4.284;2022-12-29T06:45:22;11.60;99.90
18998;DHT22;9632;51.018;4.284;2022-12-29T06:47:48;11.60;99.90
18998;DHT22;9632;51.018;4.284;2022-12-29T06:50:13;11.70;99.90
18998;DHT22;9632;51.018;4.284;2022-12-29T06:52:39;11.70;99.90
18998;DHT22;9632;51.018;4.284;2022-12-29T06:55:05;11.70;99.90
18998;DHT22;9632;51.018;4.284;2022-12-29T06:57:31;11.70;99.90
18998;DHT22;9632;51.018;4.284;2022-12-29T06:59:56;11.70;99.90
18998;DHT22;9632;51.018;4.284;2022-12-29T07:02:22;11.80;99.90
18998;DHT22;9632;51.018;4.284;2022-12-29T07:04:53;11.90;99.90
18998;DHT22;9632;51.018;4.284;2022-12-29T07:07:20;11.90;99.90
18998;DHT22;9632;51.018;4.284;2022-12-29T07:09:46;11.80;99.90
18998;DHT22;9632;51.018;4.284;2022-12-29T07:12:12;11.70;99.90
18998;DHT22;9632;51.018;4.284;2022-12-29T07:14:37;11.70;99.90
18998;DHT22;9632;51.018;4.284;2022-12-29T07:17:03;11.80;99.90
18998;DHT22;9632;51.018;4.284;2022-12-29T07:19:32;11.80;99.90
18998;DHT22;9632;51.018;4.284;2022-12-29T07:21:58;11.80;99.90
18998;DHT22;9632;51.018;4.284;2022-12-29T07:24:24;11.90;99.90
18998;DHT22;9632;51.018;4.284;2022-12-29T07:26:53;12.00;99.90
18998;DHT22;9632;51.018;4.284;2022-12-29T07:29:19;12.00;99.90
18998;DHT22;9632;51.018;4.284;2022-12-29T07:31:44;12.00;99.90
18998;DHT22;9632;51.018;4.284;2022-12-29T07:34:12;11.90;99.90
18998;DHT22;9632;51.018;4.284;2022-12-29T07:36:38;11.90;99.90
18998;DHT22;9632;51.018;4.284;2022-12-29T07:39:04;11.90;99.90
18998;DHT22;9632;51.018;4.284;2022-12-29T07:41:29;11.90;99.90
18998;DHT22;9632;51.018;4.284;2022-12-29T07:43:55;11.90;99.90
18998;DHT22;9632;51.018;4.284;2022-12-29T07:46:21;11.90;99.90
18998;DHT22;9632;51.018;4.284;2022-12-29T07:48:46;12.00;99.90
18998;DHT22;9632;51.018;4.284;2022-12-29T07:51:12;11.90;99.90
18998;DHT22;9632;51.018;4.284;2022-12-29T07:53:38;11.90;99.90
18998;DHT22;9632;51.018;4.284;2022-12-29T07:56:04;11.90;99.90
18998;DHT22;9632;51.018;4.284;2022-12-29T07:58:29;11.90;99.90
18998;DHT22;9632;51.018;4.284;2022-12-29T08:00:55;11.90;99.90
18998;DHT22;9632;51.018;4.284;2022-12-29T08:03:22;11.90;99.90
18998;DHT22;9632;51.018;4.284;2022-12-29T08:05:48;11.90;99.90
18998;DHT22;9632;51.018;4.284;2022-12-29T08:08:14;11.90;99.90
18998;DHT22;9632;51.018;4.284;2022-12-29T08:10:39;11.90;99.90
18998;DHT22;9632;51.018;4.284;2022-12-29T08:13:05;11.90;99.90
18998;DHT22;9632;51.018;4.284;2022-12-29T08:15:31;11.90;99.90
18998;DHT22;9632;51.018;4.284;2022-12-29T08:17:56;11.90;99.90
18998;DHT22;9632;51.018;4.284;2022-12-29T08:20:22;11.90;99.90
18998;DHT22;9632;51.018;4.284;2022-12-29T08:22:48;11.90;99.90
18998;DHT22;9632;51.018;4.284;2022-12-29T08:25:13;11.90;99.90
18998;DHT22;9632;51.018;4.284;2022-12-29T08:27:39;11.90;99.90
18998;DHT22;9632;51.018;4.284;2022-12-29T08:30:06;12.00;99.90
18998;DHT22;9632;51.018;4.284;2022-12-29T08:32:31;11.90;99.90
18998;DHT22;9632;51.018;4.284;2022-12-29T08:34:57;11.90;99.90
18998;DHT22;9632;51.018;4.284;2022-12-29T08:37:23;11.80;99.90
18998;DHT22;9632;51.018;4.284;2022-12-29T08:39:48;11.80;99.90
18998;DHT22;9632;51.018;4.284;2022-12-29T08:42:15;11.70;99.90
18998;DHT22;9632;51.018;4.284;2022-12-29T08:44:41;11.70;99.90
18998;DHT22;9632;51.018;4.284;2022-12-29T08:47:06;11.70;99.90
18998;DHT22;9632;51.018;4.284;2022-12-29T08:49:33;11.70;99.90
18998;DHT22;9632;51.018;4.284;2022-12-29T08:51:59;11.70;99.90
18998;DHT22;9632;51.018;4.284;2022-12-29T08:54:25;11.70;99.90
18998;DHT22;9632;51.018;4.284;2022-12-29T08:56:50;11.70;99.90
18998;DHT22;9632;51.018;4.284;2022-12-29T08:59:16;11.50;99.90
18998;DHT22;9632;51.018;4.284;2022-12-29T09:01:41;11.60;99.90
18998;DHT22;9632;51.018;4.284;2022-12-29T09:04:08;11.60;99.90
18998;DHT22;9632;51.018;4.284;2022-12-29T09:06:34;11.50;99.90
18998;DHT22;9632;51.018;4.284;2022-12-29T09:08:59;11.40;99.90
18998;DHT22;9632;51.018;4.284;2022-12-29T09:11:26;11.40;99.90
18998;DHT22;9632;51.018;4.284;2022-12-29T09:13:53;11.40;99.90
18998;DHT22;9632;51.018;4.284;2022-12-29T09:16:21;11.30;99.90
18998;DHT22;9632;51.018;4.284;2022-12-29T09:18:47;11.20;99.90
18998;DHT22;9632;51.018;4.284;2022-12-29T09:21:13;11.20;99.90
18998;DHT22;9632;51.018;4.284;2022-12-29T09:23:39;11.30;99.90
18998;DHT22;9632;51.018;4.284;2022-12-29T09:26:07;11.20;99.90
18998;DHT22;9632;51.018;4.284;2022-12-29T09:28:33;11.20;99.90
18998;DHT22;9632;51.018;4.284;2022-12-29T09:30:59;11.20;99.90
18998;DHT22;9632;51.018;4.284;2022-12-29T09:33:25;11.20;99.90
18998;DHT22;9632;51.018;4.284;2022-12-29T09:35:55;11.20;99.90
18998;DHT22;9632;51.018;4.284;2022-12-29T09:38:22;11.10;99.90
18998;DHT22;9632;51.018;4.284;2022-12-29T09:40:54;11.10;99.90
18998;DHT22;9632;51.018;4.284;2022-12-29T09:48:34;11.20;99.90
18998;DHT22;9632;51.018;4.284;2022-12-29T09:51:03;11.30;99.90
18998;DHT22;9632;51.018;4.284;2022-12-29T09:53:51;11.30;99.90
18998;DHT22;9632;51.018;4.284;2022-12-29T09:56:23;11.20;99.90
18998;DHT22;9632;51.018;4.284;2022-12-29T09:59:05;11.20;99.90
18998;DHT22;9632;51.018;4.284;2022-12-29T10:04:09;11.20;99.90
18998;DHT22;9632;51.018;4.284;2022-12-29T10:06:39;11.20;99.90
18998;DHT22;9632;51.018;4.284;2022-12-29T10:18:24;11.50;99.90
18998;DHT22;9632;51.018;4.284;2022-12-29T10:21:24;11.40;99.90
18998;DHT22;9632;51.018;4.284;2022-12-29T10:23:52;11.50;99.90
18998;DHT22;9632;51.018;4.284;2022-12-29T10:26:21;11.50;99.90
18998;DHT22;9632;51.018;4.284;2022-12-29T10:28:51;11.40;99.90
18998;DHT22;9632;51.018;4.284;2022-12-29T10:31:23;11.50;99.90
18998;DHT22;9632;51.018;4.284;2022-12-29T10:33:53;11.40;99.90
18998;DHT22;9632;51.018;4.284;2022-12-29T10:36:38;11.40;99.90
18998;DHT22;9632;51.018;4.284;2022-12-29T10:42:14;11.50;99.90
18998;DHT22;9632;51.018;4.284;2022-12-29T10:44:41;11.70;99.90
18998;DHT22;9632;51.018;4.284;2022-12-29T10:47:14;11.80;99.90
18998;DHT22;9632;51.018;4.284;2022-12-29T10:49:42;11.80;99.90
18998;DHT22;9632;51.018;4.284;2022-12-29T10:52:09;11.90;99.90
18998;DHT22;9632;51.018;4.284;2022-12-29T10:54:47;12.00;99.90
18998;DHT22;9632;51.018;4.284;2022-12-29T10:57:35;12.10;99.90
18998;DHT22;9632;51.018;4.284;2022-12-29T11:00:08;12.10;99.90
18998;DHT22;9632;51.018;4.284;2022-12-29T11:05:36;12.10;99.90
18998;DHT22;9632;51.018;4.284;2022-12-29T11:08:08;12.20;99.90
18998;DHT22;9632;51.018;4.284;2022-12-29T11:10:44;12.10;99.90
18998;DHT22;9632;51.018;4.284;2022-12-29T11:13:16;12.10;99.90
18998;DHT22;9632;51.018;4.284;2022-12-29T11:15:50;12.20;99.90
18998;DHT22;9632;51.018;4.284;2022-12-29T11:18:31;12.20;99.90
18998;DHT22;9632;51.018;4.284;2022-12-29T11:21:03;12.30;99.90
18998;DHT22;9632;51.018;4.284;2022-12-29T11:23:40;12.20;99.90
18998;DHT22;9632;51.018;4.284;2022-12-29T11:26:16;12.20;99.90
18998;DHT22;9632;51.018;4.284;2022-12-29T11:28:45;12.30;99.90
18998;DHT22;9632;51.018;4.284;2022-12-29T11:31:16;12.20;99.90
18998;DHT22;9632;51.018;4.284;2022-12-29T11:33:41;12.20;99.90
18998;DHT22;9632;51.018;4.284;2022-12-29T11:38:40;12.30;99.90
18998;DHT22;9632;51.018;4.284;2022-12-29T11:41:11;12.20;99.90
18998;DHT22;9632;51.018;4.284;2022-12-29T11:43:40;12.20;99.90
18998;DHT22;9632;51.018;4.284;2022-12-29T11:46:14;12.20;99.90
18998;DHT22;9632;51.018;4.284;2022-12-29T11:48:42;12.30;99.90
18998;DHT22;9632;51.018;4.284;2022-12-29T11:51:09;12.30;99.90
18998;DHT22;9632;51.018;4.284;2022-12-29T11:53:42;12.20;99.90
18998;DHT22;9632;51.018;4.284;2022-12-29T11:56:11;12.30;99.90
18998;DHT22;9632;51.018;4.284;2022-12-29T11:58:38;12.30;99.90
18998;DHT22;9632;51.018;4.284;2022-12-29T12:04:23;12.40;99.90
18998;DHT22;9632;51.018;4.284;2022-12-29T12:07:10;12.50;99.90
18998;DHT22;9632;51.018;4.284;2022-12-29T12:09:47;12.60;99.90
18998;DHT22;9632;51.018;4.284;2022-12-29T12:15:03;12.50;99.90
18998;DHT22;9632;51.018;4.284;2022-12-29T12:23:14;12.60;99.90
18998;DHT22;9632;51.018;4.284;2022-12-29T12:26:09;12.50;99.90
18998;DHT22;9632;51.018;4.284;2022-12-29T12:33:57;12.50;99.90
18998;DHT22;9632;51.018;4.284;2022-12-29T12:42:13;12.40;99.90
18998;DHT22;9632;51.018;4.284;2022-12-29T12:53:39;12.30;99.90
18998;DHT22;9632;51.018;4.284;2022-12-29T12:59:13;12.30;99.90
18998;DHT22;9632;51.018;4.284;2022-12-29T13:01:55;12.30;99.90
18998;DHT22;9632;51.018;4.284;2022-12-29T13:07:40;12.30;99.90
18998;DHT22;9632;51.018;4.284;2022-12-29T13:13:22;12.40;99.90
18998;DHT22;9632;51.018;4.284;2022-12-29T13:24:47;12.30;99.90
18998;DHT22;9632;51.018;4.284;2022-12-29T13:27:42;12.30;99.90
18998;DHT22;9632;51.018;4.284;2022-12-29T13:30:16;12.30;99.90
18998;DHT22;9632;51.018;4.284;2022-12-29T13:33:13;12.30;99.90
18998;DHT22;9632;51.018;4.284;2022-12-29T13:36:05;12.20;99.90
18998;DHT22;9632;51.018;4.284;2022-12-29T13:41:06;12.10;99.90
18998;DHT22;9632;51.018;4.284;2022-12-29T13:43:37;12.10;99.90
18998;DHT22;9632;51.018;4.284;2022-12-29T13:46:13;12.20;99.90
18998;DHT22;9632;51.018;4.284;2022-12-29T13:49:18;12.10;99.90
18998;DHT22;9632;51.018;4.284;2022-12-29T13:51:38;12.10;99.90
18998;DHT22;9632;51.018;4.284;2022-12-29T14:00:15;12.00;99.90
18998;DHT22;9632;51.018;4.284;2022-12-29T14:05:32;11.90;99.90
18998;DHT22;9632;51.018;4.284;2022-12-29T14:08:04;11.70;99.90
18998;DHT22;9632;51.018;4.284;2022-12-29T14:10:35;11.60;99.90
18998;DHT22;9632;51.018;4.284;2022-12-29T14:13:14;11.50;99.90
18998;DHT22;9632;51.018;4.284;2022-12-29T14:15:44;11.40;99.90
18998;DHT22;9632;51.018;4.284;2022-12-29T14:18:14;11.30;99.90
18998;DHT22;9632;51.018;4.284;2022-12-29T14:20:50;11.20;99.90
18998;DHT22;9632;51.018;4.284;2022-12-29T14:23:39;11.20;99.90
18998;DHT22;9632;51.018;4.284;2022-12-29T14:31:02;10.90;99.90
18998;DHT22;9632;51.018;4.284;2022-12-29T14:33:31;10.70;99.90
18998;DHT22;9632;51.018;4.284;2022-12-29T14:39:01;10.50;99.90
18998;DHT22;9632;51.018;4.284;2022-12-29T14:41:34;10.50;99.90
18998;DHT22;9632;51.018;4.284;2022-12-29T14:46:45;10.40;99.90
18998;DHT22;9632;51.018;4.284;2022-12-29T14:49:20;10.30;99.90
18998;DHT22;9632;51.018;4.284;2022-12-29T14:51:48;10.30;99.90
18998;DHT22;9632;51.018;4.284;2022-12-29T14:57:03;10.20;99.90
18998;DHT22;9632;51.018;4.284;2022-12-29T14:59:31;10.30;99.90
18998;DHT22;9632;51.018;4.284;2022-12-29T15:02:00;10.30;99.90
18998;DHT22;9632;51.018;4.284;2022-12-29T15:04:33;10.30;99.90
18998;DHT22;9632;51.018;4.284;2022-12-29T15:07:01;10.40;99.90
18998;DHT22;9632;51.018;4.284;2022-12-29T15:12:41;10.40;99.90
18998;DHT22;9632;51.018;4.284;2022-12-29T15:15:20;10.40;99.90
18998;DHT22;9632;51.018;4.284;2022-12-29T15:17:45;10.30;99.90
18998;DHT22;9632;51.018;4.284;2022-12-29T15:20:31;10.20;99.90
18998;DHT22;9632;51.018;4.284;2022-12-29T15:23:09;10.20;99.90
18998;DHT22;9632;51.018;4.284;2022-12-29T15:25:36;10.10;99.90
18998;DHT22;9632;51.018;4.284;2022-12-29T15:28:06;10.20;99.90
18998;DHT22;9632;51.018;4.284;2022-12-29T15:30:32;10.20;99.90
18998;DHT22;9632;51.018;4.284;2022-12-29T15:32:58;10.20;99.90
18998;DHT22;9632;51.018;4.284;2022-12-29T15:35:36;10.20;99.90
18998;DHT22;9632;51.018;4.284;2022-12-29T15:38:35;10.20;99.90
18998;DHT22;9632;51.018;4.284;2022-12-29T15:41:50;10.20;99.90
18998;DHT22;9632;51.018;4.284;2022-12-29T15:46:22;10.30;99.90
18998;DHT22;9632;51.018;4.284;2022-12-29T15:48:48;10.30;99.90
18998;DHT22;9632;51.018;4.284;2022-12-29T15:51:32;10.40;99.90
18998;DHT22;9632;51.018;4.284;2022-12-29T15:53:59;10.20;99.90
18998;DHT22;9632;51.018;4.284;2022-12-29T15:56:28;10.30;99.90
18998;DHT22;9632;51.018;4.284;2022-12-29T15:58:54;10.30;99.90
18998;DHT22;9632;51.018;4.284;2022-12-29T16:01:33;10.30;99.90
18998;DHT22;9632;51.018;4.284;2022-12-29T16:04:01;10.30;99.90
18998;DHT22;9632;51.018;4.284;2022-12-29T16:09:02;10.20;99.90
18998;DHT22;9632;51.018;4.284;2022-12-29T16:11:34;10.20;99.90
18998;DHT22;9632;51.018;4.284;2022-12-29T16:14:06;10.20;99.90
18998;DHT22;9632;51.018;4.284;2022-12-29T16:16:36;10.10;99.90
18998;DHT22;9632;51.018;4.284;2022-12-29T16:19:14;10.10;99.90
18998;DHT22;9632;51.018;4.284;2022-12-29T16:21:41;10.10;99.90
18998;DHT22;9632;51.018;4.284;2022-12-29T16:24:13;10.10;99.90
18998;DHT22;9632;51.018;4.284;2022-12-29T16:26:54;10.20;99.90
18998;DHT22;9632;51.018;4.284;2022-12-29T16:29:23;10.10;99.90
18998;DHT22;9632;51.018;4.284;2022-12-29T16:31:50;10.20;99.90
18998;DHT22;9632;51.018;4.284;2022-12-29T16:37:04;10.10;99.90
18998;DHT22;9632;51.018;4.284;2022-12-29T16:39:44;10.00;99.90
18998;DHT22;9632;51.018;4.284;2022-12-29T16:48:18;10.00;99.90
18998;DHT22;9632;51.018;4.284;2022-12-29T16:50:45;10.00;99.90
18998;DHT22;9632;51.018;4.284;2022-12-29T16:53:30;10.00;99.90
18998;DHT22;9632;51.018;4.284;2022-12-29T16:56:09;10.00;99.90
18998;DHT22;9632;51.018;4.284;2022-12-29T16:58:38;9.90;99.90
18998;DHT22;9632;51.018;4.284;2022-12-29T17:01:05;9.80;99.90
18998;DHT22;9632;51.018;4.284;2022-12-29T17:03:41;9.80;99.90
18998;DHT22;9632;51.018;4.284;2022-12-29T17:06:17;9.80;99.90
18998;DHT22;9632;51.018;4.284;2022-12-29T17:08:44;9.80;99.90
18998;DHT22;9632;51.018;4.284;2022-12-29T17:16:42;9.90;99.90
18998;DHT22;9632;51.018;4.284;2022-12-29T17:19:25;9.90;99.90
18998;DHT22;9632;51.018;4.284;2022-12-29T17:21:52;10.00;99.90
18998;DHT22;9632;51.018;4.284;2022-12-29T17:24:19;9.90;99.90
18998;DHT22;9632;51.018;4.284;2022-12-29T17:27:05;9.90;99.90
18998;DHT22;9632;51.018;4.284;2022-12-29T17:29:38;9.80;99.90
18998;DHT22;9632;51.018;4.284;2022-12-29T17:32:06;9.90;99.90
18998;DHT22;9632;51.018;4.284;2022-12-29T17:34:34;9.90;99.90
18998;DHT22;9632;51.018;4.284;2022-12-29T17:37:00;9.90;99.90
18998;DHT22;9632;51.018;4.284;2022-12-29T17:39:26;9.90;99.90
18998;DHT22;9632;51.018;4.284;2022-12-29T17:41:52;9.90;99.90
18998;DHT22;9632;51.018;4.284;2022-12-29T17:44:19;9.90;99.90
18998;DHT22;9632;51.018;4.284;2022-12-29T17:46:46;9.90;99.90
18998;DHT22;9632;51.018;4.284;2022-12-29T17:49:14;9.90;99.90
18998;DHT22;9632;51.018;4.284;2022-12-29T17:51:44;9.90;99.90
18998;DHT22;9632;51.018;4.284;2022-12-29T17:54:22;9.80;99.90
18998;DHT22;9632;51.018;4.284;2022-12-29T17:56:49;9.80;99.90
18998;DHT22;9632;51.018;4.284;2022-12-29T17:59:15;9.80;99.90
18998;DHT22;9632;51.018;4.284;2022-12-29T18:01:42;9.80;99.90
18998;DHT22;9632;51.018;4.284;2022-12-29T18:04:17;9.80;99.90
18998;DHT22;9632;51.018;4.284;2022-12-29T18:06:43;9.80;99.90
18998;DHT22;9632;51.018;4.284;2022-12-29T18:09:09;9.80;99.90
18998;DHT22;9632;51.018;4.284;2022-12-29T18:11:39;9.80;99.90
18998;DHT22;9632;51.018;4.284;2022-12-29T18:14:15;9.70;99.90
18998;DHT22;9632;51.018;4.284;2022-12-29T18:16:42;9.70;99.90
18998;DHT22;9632;51.018;4.284;2022-12-29T18:19:07;9.70;99.90
18998;DHT22;9632;51.018;4.284;2022-12-29T18:21:37;9.80;99.90
18998;DHT22;9632;51.018;4.284;2022-12-29T18:24:04;9.80;99.90
18998;DHT22;9632;51.018;4.284;2022-12-29T18:26:30;9.70;99.90
18998;DHT22;9632;51.018;4.284;2022-12-29T18:29:00;9.70;99.90
18998;DHT22;9632;51.018;4.284;2022-12-29T18:33:52;9.80;99.90
18998;DHT22;9632;51.018;4.284;2022-12-29T18:36:20;9.70;99.90
18998;DHT22;9632;51.018;4.284;2022-12-29T18:38:46;9.70;99.90
18998;DHT22;9632;51.018;4.284;2022-12-29T18:41:15;9.70;99.90
18998;DHT22;9632;51.018;4.284;2022-12-29T18:43:42;9.70;99.90
18998;DHT22;9632;51.018;4.284;2022-12-29T18:46:08;9.70;99.90
18998;DHT22;9632;51.018;4.284;2022-12-29T18:48:33;9.80;99.90
18998;DHT22;9632;51.018;4.284;2022-12-29T18:50:59;9.80;99.90
18998;DHT22;9632;51.018;4.284;2022-12-29T18:53:25;9.80;99.90
18998;DHT22;9632;51.018;4.284;2022-12-29T18:55:51;9.80;99.90